Charlottetown, Prince Edward Island

11:09 PM ADT on March 31, 2015 (GMT -0300)
Charlottetown | | Change Station
CLOSE
Current Station
Airport
Location: Charlottetown,
Elevation: 157 ft
Nearby Weather Stations

Elev 157 ft 46.29 °N, 63.13 °W | Updated 9 minutes ago

Light Snow Showers
Light Showers Snow
34 °F
Feels Like 26 °F
N
9
Wind Variable Wind from WNW

Tomorrow is forecast to be nearly the same temperature as today.

Today
High -- | Low -- °F
--% Chance of Precip.
Yesterday
High -- | Low -- °F
Precip. -- in
6:54 AM 7:39 PM
Waxing Gibbous, 90% visible
Pressure 29.62 in
Visibility 12.0 miles
Clouds Mostly Cloudy 2600 ft
Overcast 4500 ft
Windchill 26 °F
Dew Point 32 °F
Humidity 93%
Rainfall 0.00 in
Snow Depth Not available.
UV 0 out of 12
Pollen Not available.
Air Quality Not available.
Flu Activity Not available.
METAR CYYG 010200Z 29008KT 12SM -SHSN BKN026 OVC045 01/M00 A2962 RMK SC6SC2 SLP031

More Conditions Fewer Conditions

Pressure 29.62 in
Visibility 12.0 miles
Clouds Mostly Cloudy 2600 ft
Overcast 4500 ft
Windchill 26 °F
Dew Point 32 °F
Humidity 93%
Rainfall 0.00 in
Snow Depth Not available.
UV 0 out of 12
Pollen Not available.
Air Quality Not available.
Flu Activity Not available.
METAR CYYG 010200Z 29008KT 12SM -SHSN BKN026 OVC045 01/M00 A2962 RMK SC6SC2 SLP031

More Conditions Fewer Conditions

10-Day Weather Forecast

Almanac

Astronomy

Mar. 31, 2015 Rise Set
Actual Time
Civil Twilight
Nautical Twilight
Astronomical Twilight
Moon
Length of Visible Light
Length of Day
Tomorrow will be .
, % of the Moon is Illuminated

Today's Extremes

Country Highs Country Lows

Community

WunderPhotos

Upload Photos

1,809,869 photos uploaded!

WunderBlogs® & News

Nearby

Air Quality

  Air Quality AQ Index Pollutant
Not available.

Snow Depth

Station Depth Elevation

Earthquake Activity

City Distance Mag. Time & Date
Minimum magnitude displayed is 2.5.

Coastal Water Temperatures

Place Temperature

Stations

Nearby Weather Stations

Station Location Temp. Windchill Dew Point Humidity Wind Precip. Elev Updated Type